sensor_id;sensor_type;location;lat;lon;timestamp;temperature;humidity
16267;DHT22;8241;48.786;9.250;2022-12-08T00:00:27;4.00;99.90
16267;DHT22;8241;48.786;9.250;2022-12-08T00:02:54;4.00;99.90
16267;DHT22;8241;48.786;9.250;2022-12-08T00:05:22;3.90;99.90
16267;DHT22;8241;48.786;9.250;2022-12-08T00:08:11;4.00;99.90
16267;DHT22;8241;48.786;9.250;2022-12-08T00:10:56;4.00;99.90
16267;DHT22;8241;48.786;9.250;2022-12-08T00:13:40;4.00;99.90
16267;DHT22;8241;48.786;9.250;2022-12-08T00:16:09;4.00;99.90
16267;DHT22;8241;48.786;9.250;2022-12-08T00:18:36;4.10;99.90
16267;DHT22;8241;48.786;9.250;2022-12-08T00:21:12;4.10;99.90
16267;DHT22;8241;48.786;9.250;2022-12-08T00:23:39;4.20;99.90
16267;DHT22;8241;48.786;9.250;2022-12-08T00:26:11;4.30;99.90
16267;DHT22;8241;48.786;9.250;2022-12-08T00:28:38;4.40;99.90
16267;DHT22;8241;48.786;9.250;2022-12-08T00:31:11;4.20;99.90
16267;DHT22;8241;48.786;9.250;2022-12-08T00:33:38;4.20;99.90
16267;DHT22;8241;48.786;9.250;2022-12-08T00:36:06;4.40;99.90
16267;DHT22;8241;48.786;9.250;2022-12-08T00:38:35;4.40;99.90
16267;DHT22;8241;48.786;9.250;2022-12-08T00:41:02;4.40;99.90
16267;DHT22;8241;48.786;9.250;2022-12-08T00:43:29;4.30;99.90
16267;DHT22;8241;48.786;9.250;2022-12-08T00:45:56;4.30;99.90
16267;DHT22;8241;48.786;9.250;2022-12-08T00:48:23;4.00;99.90
16267;DHT22;8241;48.786;9.250;2022-12-08T00:50:56;3.90;99.90
16267;DHT22;8241;48.786;9.250;2022-12-08T00:53:29;3.90;99.90
16267;DHT22;8241;48.786;9.250;2022-12-08T00:56:15;3.90;99.90
16267;DHT22;8241;48.786;9.250;2022-12-08T00:58:52;3.50;99.90
16267;DHT22;8241;48.786;9.250;2022-12-08T01:01:18;3.40;99.90
16267;DHT22;8241;48.786;9.250;2022-12-08T01:03:54;3.30;99.90
16267;DHT22;8241;48.786;9.250;2022-12-08T01:06:25;3.20;99.90
16267;DHT22;8241;48.786;9.250;2022-12-08T01:08:52;3.10;99.90
16267;DHT22;8241;48.786;9.250;2022-12-08T01:11:21;3.10;99.90
16267;DHT22;8241;48.786;9.250;2022-12-08T01:13:48;3.00;99.90
16267;DHT22;8241;48.786;9.250;2022-12-08T01:16:28;3.00;99.90
16267;DHT22;8241;48.786;9.250;2022-12-08T01:19:13;3.00;99.90
16267;DHT22;8241;48.786;9.250;2022-12-08T01:22:07;2.90;99.90
16267;DHT22;8241;48.786;9.250;2022-12-08T01:24:50;3.00;99.90
16267;DHT22;8241;48.786;9.250;2022-12-08T01:33:51;3.20;99.90
16267;DHT22;8241;48.786;9.250;2022-12-08T01:36:27;3.40;99.90
16267;DHT22;8241;48.786;9.250;2022-12-08T01:39:10;3.40;99.90
16267;DHT22;8241;48.786;9.250;2022-12-08T01:41:55;3.30;99.90
16267;DHT22;8241;48.786;9.250;2022-12-08T01:48:15;3.20;99.90
16267;DHT22;8241;48.786;9.250;2022-12-08T01:50:48;3.30;99.90
16267;DHT22;8241;48.786;9.250;2022-12-08T01:53:29;3.40;99.90
16267;DHT22;8241;48.786;9.250;2022-12-08T01:56:06;3.40;99.90
16267;DHT22;8241;48.786;9.250;2022-12-08T01:58:40;3.30;99.90
16267;DHT22;8241;48.786;9.250;2022-12-08T02:01:08;3.30;99.90
16267;DHT22;8241;48.786;9.250;2022-12-08T02:03:41;3.10;99.90
16267;DHT22;8241;48.786;9.250;2022-12-08T02:06:10;3.10;99.90
16267;DHT22;8241;48.786;9.250;2022-12-08T02:08:39;3.10;99.90
16267;DHT22;8241;48.786;9.250;2022-12-08T02:11:09;3.00;99.90
16267;DHT22;8241;48.786;9.250;2022-12-08T02:13:54;2.90;99.90
16267;DHT22;8241;48.786;9.250;2022-12-08T02:16:39;2.90;99.90
16267;DHT22;8241;48.786;9.250;2022-12-08T02:23:07;2.90;99.90
16267;DHT22;8241;48.786;9.250;2022-12-08T02:32:27;3.00;99.90
16267;DHT22;8241;48.786;9.250;2022-12-08T02:35:03;3.00;99.90
16267;DHT22;8241;48.786;9.250;2022-12-08T02:37:38;2.90;99.90
16267;DHT22;8241;48.786;9.250;2022-12-08T02:40:11;2.80;99.90
16267;DHT22;8241;48.786;9.250;2022-12-08T02:42:43;2.90;99.90
16267;DHT22;8241;48.786;9.250;2022-12-08T02:45:30;2.80;99.90
16267;DHT22;8241;48.786;9.250;2022-12-08T02:47:59;2.90;99.90
16267;DHT22;8241;48.786;9.250;2022-12-08T02:50:50;2.90;99.90
16267;DHT22;8241;48.786;9.250;2022-12-08T02:53:17;3.00;99.90
16267;DHT22;8241;48.786;9.250;2022-12-08T02:55:50;3.00;99.90
16267;DHT22;8241;48.786;9.250;2022-12-08T02:58:41;2.90;99.90
16267;DHT22;8241;48.786;9.250;2022-12-08T03:01:40;2.90;99.90
16267;DHT22;8241;48.786;9.250;2022-12-08T03:04:29;2.70;99.90
16267;DHT22;8241;48.786;9.250;2022-12-08T03:07:05;2.70;99.90
16267;DHT22;8241;48.786;9.250;2022-12-08T03:09:38;2.70;99.90
16267;DHT22;8241;48.786;9.250;2022-12-08T03:12:12;2.70;99.90
16267;DHT22;8241;48.786;9.250;2022-12-08T03:14:43;2.80;99.90
16267;DHT22;8241;48.786;9.250;2022-12-08T03:17:12;2.80;99.90
16267;DHT22;8241;48.786;9.250;2022-12-08T03:19:55;2.90;99.90
16267;DHT22;8241;48.786;9.250;2022-12-08T03:22:26;2.70;99.90
16267;DHT22;8241;48.786;9.250;2022-12-08T03:25:23;2.50;99.90
16267;DHT22;8241;48.786;9.250;2022-12-08T03:28:04;2.60;99.90
16267;DHT22;8241;48.786;9.250;2022-12-08T03:33:25;2.80;99.90
16267;DHT22;8241;48.786;9.250;2022-12-08T03:35:54;2.70;99.90
16267;DHT22;8241;48.786;9.250;2022-12-08T03:38:23;2.60;99.90
16267;DHT22;8241;48.786;9.250;2022-12-08T03:40:58;2.70;99.90
16267;DHT22;8241;48.786;9.250;2022-12-08T03:43:43;2.70;99.90
16267;DHT22;8241;48.786;9.250;2022-12-08T03:46:10;2.40;99.90
16267;DHT22;8241;48.786;9.250;2022-12-08T03:48:37;2.50;99.90
16267;DHT22;8241;48.786;9.250;2022-12-08T03:51:06;2.30;99.90
16267;DHT22;8241;48.786;9.250;2022-12-08T03:53:34;2.40;99.90
16267;DHT22;8241;48.786;9.250;2022-12-08T03:56:03;2.40;99.90
16267;DHT22;8241;48.786;9.250;2022-12-08T03:59:00;2.40;99.90
16267;DHT22;8241;48.786;9.250;2022-12-08T04:01:27;2.20;99.90
16267;DHT22;8241;48.786;9.250;2022-12-08T04:03:54;2.00;99.90
16267;DHT22;8241;48.786;9.250;2022-12-08T04:06:22;1.80;99.90
16267;DHT22;8241;48.786;9.250;2022-12-08T04:11:41;2.10;99.90
16267;DHT22;8241;48.786;9.250;2022-12-08T04:14:15;2.20;99.90
16267;DHT22;8241;48.786;9.250;2022-12-08T04:16:44;2.30;99.90
16267;DHT22;8241;48.786;9.250;2022-12-08T04:19:20;2.30;99.90
16267;DHT22;8241;48.786;9.250;2022-12-08T04:22:02;2.40;99.90
16267;DHT22;8241;48.786;9.250;2022-12-08T04:24:36;2.20;99.90
16267;DHT22;8241;48.786;9.250;2022-12-08T04:27:05;1.90;99.90
16267;DHT22;8241;48.786;9.250;2022-12-08T04:30:07;1.70;99.90
16267;DHT22;8241;48.786;9.250;2022-12-08T04:32:45;1.50;99.90
16267;DHT22;8241;48.786;9.250;2022-12-08T04:35:23;1.50;99.90
16267;DHT22;8241;48.786;9.250;2022-12-08T04:37:51;1.60;99.90
16267;DHT22;8241;48.786;9.250;2022-12-08T04:40:18;1.50;99.90
16267;DHT22;8241;48.786;9.250;2022-12-08T04:43:01;1.50;99.90
16267;DHT22;8241;48.786;9.250;2022-12-08T04:48:41;1.60;99.90
16267;DHT22;8241;48.786;9.250;2022-12-08T04:51:13;1.90;99.90
16267;DHT22;8241;48.786;9.250;2022-12-08T04:53:41;2.10;99.90
16267;DHT22;8241;48.786;9.250;2022-12-08T04:56:10;2.20;99.90
16267;DHT22;8241;48.786;9.250;2022-12-08T04:58:39;2.10;99.90
16267;DHT22;8241;48.786;9.250;2022-12-08T05:01:06;2.10;99.90
16267;DHT22;8241;48.786;9.250;2022-12-08T05:03:51;2.20;99.90
16267;DHT22;8241;48.786;9.250;2022-12-08T05:09:26;2.20;99.90
16267;DHT22;8241;48.786;9.250;2022-12-08T05:11:53;2.10;99.90
16267;DHT22;8241;48.786;9.250;2022-12-08T05:14:21;2.10;99.90
16267;DHT22;8241;48.786;9.250;2022-12-08T05:16:55;1.90;99.90
16267;DHT22;8241;48.786;9.250;2022-12-08T05:19:55;2.00;99.90
16267;DHT22;8241;48.786;9.250;2022-12-08T05:25:22;1.90;99.90
16267;DHT22;8241;48.786;9.250;2022-12-08T05:27:57;1.80;99.90
16267;DHT22;8241;48.786;9.250;2022-12-08T05:30:29;1.80;99.90
16267;DHT22;8241;48.786;9.250;2022-12-08T05:32:59;1.90;99.90
16267;DHT22;8241;48.786;9.250;2022-12-08T05:35:26;2.00;99.90
16267;DHT22;8241;48.786;9.250;2022-12-08T05:37:53;2.00;99.90
16267;DHT22;8241;48.786;9.250;2022-12-08T05:40:20;1.90;99.90
16267;DHT22;8241;48.786;9.250;2022-12-08T05:43:08;1.90;99.90
16267;DHT22;8241;48.786;9.250;2022-12-08T05:48:46;2.10;99.90
16267;DHT22;8241;48.786;9.250;2022-12-08T05:51:43;1.90;99.90
16267;DHT22;8241;48.786;9.250;2022-12-08T05:57:24;2.00;99.90
16267;DHT22;8241;48.786;9.250;2022-12-08T05:59:51;2.10;99.90
16267;DHT22;8241;48.786;9.250;2022-12-08T06:02:41;2.10;99.90
16267;DHT22;8241;48.786;9.250;2022-12-08T06:05:23;2.00;99.90
16267;DHT22;8241;48.786;9.250;2022-12-08T06:07:59;2.10;99.90
16267;DHT22;8241;48.786;9.250;2022-12-08T06:10:28;2.20;99.90
16267;DHT22;8241;48.786;9.250;2022-12-08T06:16:08;2.20;99.90
16267;DHT22;8241;48.786;9.250;2022-12-08T06:18:37;2.10;99.90
16267;DHT22;8241;48.786;9.250;2022-12-08T06:21:06;2.10;99.90
16267;DHT22;8241;48.786;9.250;2022-12-08T06:23:36;1.90;99.90
16267;DHT22;8241;48.786;9.250;2022-12-08T06:26:12;2.10;99.90
16267;DHT22;8241;48.786;9.250;2022-12-08T06:28:41;2.10;99.90
16267;DHT22;8241;48.786;9.250;2022-12-08T06:31:28;2.10;99.90
16267;DHT22;8241;48.786;9.250;2022-12-08T06:34:05;1.90;99.90
16267;DHT22;8241;48.786;9.250;2022-12-08T06:36:44;1.70;99.90
16267;DHT22;8241;48.786;9.250;2022-12-08T06:39:29;1.50;99.90
16267;DHT22;8241;48.786;9.250;2022-12-08T06:42:07;1.20;99.90
16267;DHT22;8241;48.786;9.250;2022-12-08T06:45:14;1.00;99.90
16267;DHT22;8241;48.786;9.250;2022-12-08T06:47:44;0.90;99.90
16267;DHT22;8241;48.786;9.250;2022-12-08T06:50:37;1.10;99.90
16267;DHT22;8241;48.786;9.250;2022-12-08T06:53:05;1.20;99.90
16267;DHT22;8241;48.786;9.250;2022-12-08T06:56:03;1.40;99.90
16267;DHT22;8241;48.786;9.250;2022-12-08T06:58:30;1.60;99.90
16267;DHT22;8241;48.786;9.250;2022-12-08T07:01:03;1.60;99.90
16267;DHT22;8241;48.786;9.250;2022-12-08T07:03:34;1.60;99.90
16267;DHT22;8241;48.786;9.250;2022-12-08T07:06:04;1.60;99.90
16267;DHT22;8241;48.786;9.250;2022-12-08T07:08:44;1.70;99.90
16267;DHT22;8241;48.786;9.250;2022-12-08T07:11:24;1.60;99.90
16267;DHT22;8241;48.786;9.250;2022-12-08T07:13:54;1.60;99.90
16267;DHT22;8241;48.786;9.250;2022-12-08T07:16:22;1.60;99.90
16267;DHT22;8241;48.786;9.250;2022-12-08T07:18:50;1.60;99.90
16267;DHT22;8241;48.786;9.250;2022-12-08T07:21:19;1.50;99.90
16267;DHT22;8241;48.786;9.250;2022-12-08T07:23:57;1.60;99.90
16267;DHT22;8241;48.786;9.250;2022-12-08T07:26:31;1.50;99.90
16267;DHT22;8241;48.786;9.250;2022-12-08T07:28:59;1.50;99.90
16267;DHT22;8241;48.786;9.250;2022-12-08T07:31:26;1.50;99.90
16267;DHT22;8241;48.786;9.250;2022-12-08T07:33:55;1.60;99.90
16267;DHT22;8241;48.786;9.250;2022-12-08T07:36:39;1.60;99.90
16267;DHT22;8241;48.786;9.250;2022-12-08T07:39:09;1.60;99.90
16267;DHT22;8241;48.786;9.250;2022-12-08T07:42:09;1.50;99.90
16267;DHT22;8241;48.786;9.250;2022-12-08T07:44:51;1.50;99.90
16267;DHT22;8241;48.786;9.250;2022-12-08T07:47:50;1.30;99.90
16267;DHT22;8241;48.786;9.250;2022-12-08T07:50:58;1.10;99.90
16267;DHT22;8241;48.786;9.250;2022-12-08T07:53:34;1.00;99.90
16267;DHT22;8241;48.786;9.250;2022-12-08T07:56:17;0.90;99.90
16267;DHT22;8241;48.786;9.250;2022-12-08T07:58:51;0.80;99.90
16267;DHT22;8241;48.786;9.250;2022-12-08T08:01:20;0.90;99.90
16267;DHT22;8241;48.786;9.250;2022-12-08T08:03:47;0.80;99.90
16267;DHT22;8241;48.786;9.250;2022-12-08T08:06:49;0.80;99.90
16267;DHT22;8241;48.786;9.250;2022-12-08T08:09:25;0.90;99.90
16267;DHT22;8241;48.786;9.250;2022-12-08T08:11:54;0.90;99.90
16267;DHT22;8241;48.786;9.250;2022-12-08T08:14:53;1.00;99.90
16267;DHT22;8241;48.786;9.250;2022-12-08T08:17:21;1.10;99.90
16267;DHT22;8241;48.786;9.250;2022-12-08T08:19:50;1.40;99.90
16267;DHT22;8241;48.786;9.250;2022-12-08T08:22:20;1.40;99.90
16267;DHT22;8241;48.786;9.250;2022-12-08T08:24:47;1.40;99.90
16267;DHT22;8241;48.786;9.250;2022-12-08T08:27:19;1.30;99.90
16267;DHT22;8241;48.786;9.250;2022-12-08T08:30:00;1.20;99.90
16267;DHT22;8241;48.786;9.250;2022-12-08T08:32:31;1.10;99.90
16267;DHT22;8241;48.786;9.250;2022-12-08T08:35:06;1.30;99.90
16267;DHT22;8241;48.786;9.250;2022-12-08T08:37:53;1.20;99.90
16267;DHT22;8241;48.786;9.250;2022-12-08T08:43:36;1.20;99.90
16267;DHT22;8241;48.786;9.250;2022-12-08T08:46:17;1.10;99.90
16267;DHT22;8241;48.786;9.250;2022-12-08T08:48:51;1.00;99.90
16267;DHT22;8241;48.786;9.250;2022-12-08T08:51:18;1.00;99.90
16267;DHT22;8241;48.786;9.250;2022-12-08T08:53:59;1.00;99.90
16267;DHT22;8241;48.786;9.250;2022-12-08T09:03:14;1.20;99.90
16267;DHT22;8241;48.786;9.250;2022-12-08T09:05:44;1.30;99.90
16267;DHT22;8241;48.786;9.250;2022-12-08T09:08:12;1.30;99.90
16267;DHT22;8241;48.786;9.250;2022-12-08T09:10:46;1.40;99.90
16267;DHT22;8241;48.786;9.250;2022-12-08T09:16:19;1.40;99.90
16267;DHT22;8241;48.786;9.250;2022-12-08T09:18:52;1.40;99.90
16267;DHT22;8241;48.786;9.250;2022-12-08T09:21:29;1.40;99.90
16267;DHT22;8241;48.786;9.250;2022-12-08T09:23:59;1.50;99.90
16267;DHT22;8241;48.786;9.250;2022-12-08T09:26:27;1.70;99.90
16267;DHT22;8241;48.786;9.250;2022-12-08T09:29:07;1.80;99.90
16267;DHT22;8241;48.786;9.250;2022-12-08T09:31:45;1.90;99.90
16267;DHT22;8241;48.786;9.250;2022-12-08T09:34:40;1.80;99.90
16267;DHT22;8241;48.786;9.250;2022-12-08T09:37:08;1.90;99.90
16267;DHT22;8241;48.786;9.250;2022-12-08T09:39:35;2.00;99.90
16267;DHT22;8241;48.786;9.250;2022-12-08T09:42:09;2.20;99.90
16267;DHT22;8241;48.786;9.250;2022-12-08T09:44:51;2.20;99.90
16267;DHT22;8241;48.786;9.250;2022-12-08T09:47:26;2.40;99.90
16267;DHT22;8241;48.786;9.250;2022-12-08T09:50:03;2.40;99.90
16267;DHT22;8241;48.786;9.250;2022-12-08T09:52:42;2.40;99.90
16267;DHT22;8241;48.786;9.250;2022-12-08T09:55:35;2.40;99.90
16267;DHT22;8241;48.786;9.250;2022-12-08T09:58:16;2.60;99.90
16267;DHT22;8241;48.786;9.250;2022-12-08T10:00:56;2.70;99.90
16267;DHT22;8241;48.786;9.250;2022-12-08T10:03:50;2.70;99.90
16267;DHT22;8241;48.786;9.250;2022-12-08T10:06:27;2.80;99.90
16267;DHT22;8241;48.786;9.250;2022-12-08T10:09:20;2.90;99.90
16267;DHT22;8241;48.786;9.250;2022-12-08T10:11:56;3.10;99.90
16267;DHT22;8241;48.786;9.250;2022-12-08T10:14:33;3.10;99.90
16267;DHT22;8241;48.786;9.250;2022-12-08T10:17:15;3.10;99.90
16267;DHT22;8241;48.786;9.250;2022-12-08T10:19:50;3.30;99.90
16267;DHT22;8241;48.786;9.250;2022-12-08T10:22:51;3.30;99.90
16267;DHT22;8241;48.786;9.250;2022-12-08T10:25:36;3.40;99.90
16267;DHT22;8241;48.786;9.250;2022-12-08T10:28:10;3.40;99.90
16267;DHT22;8241;48.786;9.250;2022-12-08T10:30:37;3.60;99.90
16267;DHT22;8241;48.786;9.250;2022-12-08T10:33:09;3.70;99.90
16267;DHT22;8241;48.786;9.250;2022-12-08T10:35:52;3.80;99.90
16267;DHT22;8241;48.786;9.250;2022-12-08T10:38:31;4.00;99.90
16267;DHT22;8241;48.786;9.250;2022-12-08T10:41:05;4.10;99.90
16267;DHT22;8241;48.786;9.250;2022-12-08T10:43:36;3.90;99.90
16267;DHT22;8241;48.786;9.250;2022-12-08T10:46:09;4.10;99.90
16267;DHT22;8241;48.786;9.250;2022-12-08T10:48:51;4.20;99.90
16267;DHT22;8241;48.786;9.250;2022-12-08T10:51:28;4.30;99.90
16267;DHT22;8241;48.786;9.250;2022-12-08T10:54:04;4.40;99.90
16267;DHT22;8241;48.786;9.250;2022-12-08T10:56:36;4.80;99.90
16267;DHT22;8241;48.786;9.250;2022-12-08T10:59:31;5.00;99.90
16267;DHT22;8241;48.786;9.250;2022-12-08T11:02:23;5.00;99.90
16267;DHT22;8241;48.786;9.250;2022-12-08T11:05:02;5.20;99.90
16267;DHT22;8241;48.786;9.250;2022-12-08T11:07:32;5.20;99.90
16267;DHT22;8241;48.786;9.250;2022-12-08T11:10:17;5.10;99.90
16267;DHT22;8241;48.786;9.250;2022-12-08T11:16:21;5.30;99.90
16267;DHT22;8241;48.786;9.250;2022-12-08T11:18:55;5.30;99.90
16267;DHT22;8241;48.786;9.250;2022-12-08T11:21:34;5.30;99.90
16267;DHT22;8241;48.786;9.250;2022-12-08T11:24:19;5.20;99.90
16267;DHT22;8241;48.786;9.250;2022-12-08T11:27:04;5.20;99.90
16267;DHT22;8241;48.786;9.250;2022-12-08T11:29:32;5.60;99.90
16267;DHT22;8241;48.786;9.250;2022-12-08T11:32:02;5.70;99.70
16267;DHT22;8241;48.786;9.250;2022-12-08T11:34:48;5.50;99.60
16267;DHT22;8241;48.786;9.250;2022-12-08T11:40:39;5.70;99.10
16267;DHT22;8241;48.786;9.250;2022-12-08T11:43:18;5.70;99.10
16267;DHT22;8241;48.786;9.250;2022-12-08T11:45:50;5.90;98.90
16267;DHT22;8241;48.786;9.250;2022-12-08T11:48:29;6.20;97.90
16267;DHT22;8241;48.786;9.250;2022-12-08T11:51:00;6.00;97.60
16267;DHT22;8241;48.786;9.250;2022-12-08T11:53:42;5.90;97.80
16267;DHT22;8241;48.786;9.250;2022-12-08T11:56:18;5.90;98.00
16267;DHT22;8241;48.786;9.250;2022-12-08T11:58:49;5.80;97.90
16267;DHT22;8241;48.786;9.250;2022-12-08T12:01:47;6.10;97.90
16267;DHT22;8241;48.786;9.250;2022-12-08T12:04:23;5.90;98.20
16267;DHT22;8241;48.786;9.250;2022-12-08T12:10:24;5.70;97.90
16267;DHT22;8241;48.786;9.250;2022-12-08T12:13:04;5.80;97.30
16267;DHT22;8241;48.786;9.250;2022-12-08T12:18:43;6.80;96.00
16267;DHT22;8241;48.786;9.250;2022-12-08T12:21:15;7.30;95.10
16267;DHT22;8241;48.786;9.250;2022-12-08T12:24:05;7.20;94.70
16267;DHT22;8241;48.786;9.250;2022-12-08T12:26:56;6.90;95.20
16267;DHT22;8241;48.786;9.250;2022-12-08T12:29:29;7.10;95.50
16267;DHT22;8241;48.786;9.250;2022-12-08T12:32:00;7.20;95.00
16267;DHT22;8241;48.786;9.250;2022-12-08T12:34:36;7.30;94.60
16267;DHT22;8241;48.786;9.250;2022-12-08T12:37:14;7.40;94.40
16267;DHT22;8241;48.786;9.250;2022-12-08T12:40:05;7.80;93.80
16267;DHT22;8241;48.786;9.250;2022-12-08T12:42:39;7.60;93.40
16267;DHT22;8241;48.786;9.250;2022-12-08T12:45:23;6.80;94.10
16267;DHT22;8241;48.786;9.250;2022-12-08T12:48:19;6.50;94.80
16267;DHT22;8241;48.786;9.250;2022-12-08T12:50:48;6.10;95.80
16267;DHT22;8241;48.786;9.250;2022-12-08T12:53:49;6.00;96.00
16267;DHT22;8241;48.786;9.250;2022-12-08T12:59:42;6.00;96.00
16267;DHT22;8241;48.786;9.250;2022-12-08T13:02:25;5.90;95.90
16267;DHT22;8241;48.786;9.250;2022-12-08T13:08:26;5.80;96.20
16267;DHT22;8241;48.786;9.250;2022-12-08T13:11:27;5.70;96.10
16267;DHT22;8241;48.786;9.250;2022-12-08T13:14:26;5.40;96.10
16267;DHT22;8241;48.786;9.250;2022-12-08T13:17:03;5.40;96.70
16267;DHT22;8241;48.786;9.250;2022-12-08T13:23:10;5.30;96.90
16267;DHT22;8241;48.786;9.250;2022-12-08T13:25:54;5.40;96.90
16267;DHT22;8241;48.786;9.250;2022-12-08T13:35:14;4.90;96.90
16267;DHT22;8241;48.786;9.250;2022-12-08T13:38:10;5.00;97.40
16267;DHT22;8241;48.786;9.250;2022-12-08T13:40:44;5.00;97.10
16267;DHT22;8241;48.786;9.250;2022-12-08T13:43:28;4.90;97.00
16267;DHT22;8241;48.786;9.250;2022-12-08T13:46:08;4.90;97.60
16267;DHT22;8241;48.786;9.250;2022-12-08T13:48:45;4.80;97.20
16267;DHT22;8241;48.786;9.250;2022-12-08T13:51:19;4.80;97.30
16267;DHT22;8241;48.786;9.250;2022-12-08T13:54:08;4.90;97.30
16267;DHT22;8241;48.786;9.250;2022-12-08T13:56:54;4.90;97.20
16267;DHT22;8241;48.786;9.250;2022-12-08T13:59:33;4.80;97.30
16267;DHT22;8241;48.786;9.250;2022-12-08T14:02:25;4.90;97.70
16267;DHT22;8241;48.786;9.250;2022-12-08T14:05:01;4.90;97.50
16267;DHT22;8241;48.786;9.250;2022-12-08T14:07:33;4.90;97.20
16267;DHT22;8241;48.786;9.250;2022-12-08T14:10:06;4.80;97.50
16267;DHT22;8241;48.786;9.250;2022-12-08T14:12:45;4.90;97.60
16267;DHT22;8241;48.786;9.250;2022-12-08T14:15:33;4.80;97.30
16267;DHT22;8241;48.786;9.250;2022-12-08T14:18:03;4.70;97.40
16267;DHT22;8241;48.786;9.250;2022-12-08T14:20:34;4.70;97.40
16267;DHT22;8241;48.786;9.250;2022-12-08T14:23:28;4.60;97.50
16267;DHT22;8241;48.786;9.250;2022-12-08T14:25:55;4.70;97.60
16267;DHT22;8241;48.786;9.250;2022-12-08T14:28:37;4.70;97.80
16267;DHT22;8241;48.786;9.250;2022-12-08T14:31:35;4.70;97.90
16267;DHT22;8241;48.786;9.250;2022-12-08T14:34:04;4.70;97.30
16267;DHT22;8241;48.786;9.250;2022-12-08T14:36:42;4.80;97.40
16267;DHT22;8241;48.786;9.250;2022-12-08T14:39:26;4.80;97.20
16267;DHT22;8241;48.786;9.250;2022-12-08T14:45:19;4.90;97.10
16267;DHT22;8241;48.786;9.250;2022-12-08T14:48:20;4.80;97.10
16267;DHT22;8241;48.786;9.250;2022-12-08T14:51:04;4.70;97.20
16267;DHT22;8241;48.786;9.250;2022-12-08T14:53:54;4.80;97.60
16267;DHT22;8241;48.786;9.250;2022-12-08T14:56:29;4.80;97.60
16267;DHT22;8241;48.786;9.250;2022-12-08T14:59:28;4.90;97.50
16267;DHT22;8241;48.786;9.250;2022-12-08T15:02:29;4.80;97.50
16267;DHT22;8241;48.786;9.250;2022-12-08T15:05:04;4.80;97.20
16267;DHT22;8241;48.786;9.250;2022-12-08T15:07:59;4.70;97.40
16267;DHT22;8241;48.786;9.250;2022-12-08T15:10:40;4.60;97.50
16267;DHT22;8241;48.786;9.250;2022-12-08T15:16:38;4.60;97.30
16267;DHT22;8241;48.786;9.250;2022-12-08T15:19:18;4.70;97.70
16267;DHT22;8241;48.786;9.250;2022-12-08T15:22:10;4.60;97.70
16267;DHT22;8241;48.786;9.250;2022-12-08T15:24:39;4.60;97.50
16267;DHT22;8241;48.786;9.250;2022-12-08T15:27:16;4.60;97.70
16267;DHT22;8241;48.786;9.250;2022-12-08T15:29:47;4.60;97.70
16267;DHT22;8241;48.786;9.250;2022-12-08T15:32:17;4.60;97.20
16267;DHT22;8241;48.786;9.250;2022-12-08T15:35:01;4.50;97.20
16267;DHT22;8241;48.786;9.250;2022-12-08T15:37:47;4.40;97.20
16267;DHT22;8241;48.786;9.250;2022-12-08T15:40:19;4.40;97.60
16267;DHT22;8241;48.786;9.250;2022-12-08T15:42:53;4.50;97.60
16267;DHT22;8241;48.786;9.250;2022-12-08T15:45:30;4.50;97.60
16267;DHT22;8241;48.786;9.250;2022-12-08T15:48:16;4.40;97.90
16267;DHT22;8241;48.786;9.250;2022-12-08T15:50:50;4.50;98.00
16267;DHT22;8241;48.786;9.250;2022-12-08T15:53:37;4.50;97.70
16267;DHT22;8241;48.786;9.250;2022-12-08T15:56:13;4.50;97.90
16267;DHT22;8241;48.786;9.250;2022-12-08T15:58:40;4.40;98.00
16267;DHT22;8241;48.786;9.250;2022-12-08T16:01:17;4.50;97.90
16267;DHT22;8241;48.786;9.250;2022-12-08T16:03:51;4.40;97.80
16267;DHT22;8241;48.786;9.250;2022-12-08T16:06:20;4.50;97.90
16267;DHT22;8241;48.786;9.250;2022-12-08T16:08:52;4.50;98.10
16267;DHT22;8241;48.786;9.250;2022-12-08T16:11:25;4.50;97.90
16267;DHT22;8241;48.786;9.250;2022-12-08T16:14:17;4.40;97.80
16267;DHT22;8241;48.786;9.250;2022-12-08T16:16:54;4.50;98.00
16267;DHT22;8241;48.786;9.250;2022-12-08T16:19:23;4.50;97.70
16267;DHT22;8241;48.786;9.250;2022-12-08T16:22:01;4.60;97.70
16267;DHT22;8241;48.786;9.250;2022-12-08T16:24:46;4.50;97.70
16267;DHT22;8241;48.786;9.250;2022-12-08T16:27:27;4.60;97.70
16267;DHT22;8241;48.786;9.250;2022-12-08T16:29:56;4.70;97.70
16267;DHT22;8241;48.786;9.250;2022-12-08T16:32:35;4.60;98.00
16267;DHT22;8241;48.786;9.250;2022-12-08T16:35:13;4.70;97.70
16267;DHT22;8241;48.786;9.250;2022-12-08T16:37:48;4.70;97.50
16267;DHT22;8241;48.786;9.250;2022-12-08T16:40:25;4.80;97.70
16267;DHT22;8241;48.786;9.250;2022-12-08T16:42:58;4.80;97.30
16267;DHT22;8241;48.786;9.250;2022-12-08T16:45:28;4.80;97.50
16267;DHT22;8241;48.786;9.250;2022-12-08T16:48:01;4.70;97.60
16267;DHT22;8241;48.786;9.250;2022-12-08T16:50:33;4.70;97.90
16267;DHT22;8241;48.786;9.250;2022-12-08T16:53:01;4.60;97.70
16267;DHT22;8241;48.786;9.250;2022-12-08T16:55:39;4.60;97.90
16267;DHT22;8241;48.786;9.250;2022-12-08T16:58:21;4.60;98.10
16267;DHT22;8241;48.786;9.250;2022-12-08T17:00:49;4.60;98.30
16267;DHT22;8241;48.786;9.250;2022-12-08T17:03:45;4.60;98.10
16267;DHT22;8241;48.786;9.250;2022-12-08T17:06:14;4.70;98.00
16267;DHT22;8241;48.786;9.250;2022-12-08T17:08:59;4.60;98.00
16267;DHT22;8241;48.786;9.250;2022-12-08T17:11:33;4.50;98.30
16267;DHT22;8241;48.786;9.250;2022-12-08T17:14:11;4.60;98.20
16267;DHT22;8241;48.786;9.250;2022-12-08T17:16:46;4.60;98.20
16267;DHT22;8241;48.786;9.250;2022-12-08T17:19:14;4.50;98.20
16267;DHT22;8241;48.786;9.250;2022-12-08T17:21:43;4.50;98.30
16267;DHT22;8241;48.786;9.250;2022-12-08T17:24:10;4.60;98.40
16267;DHT22;8241;48.786;9.250;2022-12-08T17:26:38;4.60;98.20
16267;DHT22;8241;48.786;9.250;2022-12-08T17:29:06;4.50;98.30
16267;DHT22;8241;48.786;9.250;2022-12-08T17:31:52;4.60;98.40
16267;DHT22;8241;48.786;9.250;2022-12-08T17:34:49;4.50;98.30
16267;DHT22;8241;48.786;9.250;2022-12-08T17:37:17;4.30;98.80
16267;DHT22;8241;48.786;9.250;2022-12-08T17:39:54;4.20;98.80
16267;DHT22;8241;48.786;9.250;2022-12-08T17:42:25;4.30;98.90
16267;DHT22;8241;48.786;9.250;2022-12-08T17:44:52;4.40;98.80
16267;DHT22;8241;48.786;9.250;2022-12-08T17:47:23;4.40;98.60
16267;DHT22;8241;48.786;9.250;2022-12-08T17:53:02;4.60;98.10
16267;DHT22;8241;48.786;9.250;2022-12-08T17:55:49;4.40;97.90
16267;DHT22;8241;48.786;9.250;2022-12-08T17:58:26;4.20;98.00
16267;DHT22;8241;48.786;9.250;2022-12-08T18:00:57;4.10;98.40
16267;DHT22;8241;48.786;9.250;2022-12-08T18:03:51;4.10;98.60
16267;DHT22;8241;48.786;9.250;2022-12-08T18:06:36;4.20;98.90
16267;DHT22;8241;48.786;9.250;2022-12-08T18:09:08;4.40;98.20
16267;DHT22;8241;48.786;9.250;2022-12-08T18:11:38;4.40;98.30
16267;DHT22;8241;48.786;9.250;2022-12-08T18:14:24;4.40;98.10
16267;DHT22;8241;48.786;9.250;2022-12-08T18:17:04;4.50;98.20
16267;DHT22;8241;48.786;9.250;2022-12-08T18:20:00;4.40;97.80
16267;DHT22;8241;48.786;9.250;2022-12-08T18:22:29;4.40;98.00
16267;DHT22;8241;48.786;9.250;2022-12-08T18:25:19;4.50;98.50
16267;DHT22;8241;48.786;9.250;2022-12-08T18:28:06;4.60;98.10
16267;DHT22;8241;48.786;9.250;2022-12-08T18:30:38;4.60;98.30
16267;DHT22;8241;48.786;9.250;2022-12-08T18:33:07;4.60;98.10
16267;DHT22;8241;48.786;9.250;2022-12-08T18:36:10;4.50;98.30
16267;DHT22;8241;48.786;9.250;2022-12-08T18:38:53;4.50;98.30
16267;DHT22;8241;48.786;9.250;2022-12-08T18:41:29;4.40;98.20
16267;DHT22;8241;48.786;9.250;2022-12-08T18:43:56;4.40;98.50